Time;durP1;ratioP1;P1;durP2;ratioP2;P2;SDS_P1;SDS_P2;PMS_P1;PMS_P2;Temp;Humidity;BMP_temperature;BMP_pressure;BME280_temperature;BME280_humidity;BME280_pressure;Samples;Min_cycle;Max_cycle;Signal;HPM_P1;HPM_P2
2022/03/17 00:01:34;;;;;;;25.70;19.83;;;;;;;;;;5053934;28;20203;-62
2022/03/17 00:04:00;;;;;;;23.00;18.90;;;;;;;;;;5053995;28;20175;-62
2022/03/17 00:06:26;;;;;;;22.17;19.67;;;;;;;;;;5036278;28;20269;-63
2022/03/17 00:08:52;;;;;;;23.60;19.80;;;;;;;;;;5053931;28;20653;-62
2022/03/17 00:11:18;;;;;;;25.20;19.93;;;;;;;;;;5036610;28;20310;-62
2022/03/17 00:13:44;;;;;;;24.27;20.10;;;;;;;;;;5057758;28;20177;-62
2022/03/17 00:16:10;;;;;;;23.90;20.13;;;;;;;;;;5057721;28;20174;-62
2022/03/17 00:18:37;;;;;;;29.50;22.67;;;;;;;;;;5039431;28;20186;-62
2022/03/17 00:21:03;;;;;;;24.30;21.00;;;;;;;;;;5057465;28;20243;-62
2022/03/17 00:23:29;;;;;;;22.57;20.17;;;;;;;;;;5057803;28;20630;-62
2022/03/17 00:25:56;;;;;;;25.37;19.53;;;;;;;;;;5039507;28;20183;-62
2022/03/17 00:28:22;;;;;;;22.57;20.17;;;;;;;;;;5039283;28;20186;-62
2022/03/17 00:30:48;;;;;;;24.77;20.73;;;;;;;;;;5057219;28;20582;-62
2022/03/17 00:33:14;;;;;;;23.80;19.77;;;;;;;;;;5057953;28;20174;-62
2022/03/17 00:35:42;;;;;;;24.83;21.60;;;;;;;;;;5057116;28;20178;-62
2022/03/17 00:38:09;;;;;;;23.80;20.27;;;;;;;;;;5038982;28;20182;-62
2022/03/17 00:40:36;;;;;;;25.57;20.90;;;;;;;;;;5039127;28;20182;-62
2022/03/17 00:43:02;;;;;;;22.47;19.53;;;;;;;;;;5038894;28;20669;-62
2022/03/17 00:45:29;;;;;;;26.37;20.13;;;;;;;;;;5038860;28;20206;-63
2022/03/17 00:47:55;;;;;;;23.80;20.40;;;;;;;;;;5057099;28;20179;-62
2022/03/17 00:50:21;;;;;;;23.13;20.63;;;;;;;;;;5056555;28;20206;-62
2022/03/17 00:52:47;;;;;;;26.50;20.83;;;;;;;;;;5056662;28;20217;-62
2022/03/17 00:55:14;;;;;;;25.73;21.43;;;;;;;;;;5056887;28;20638;-62
2022/03/17 00:57:40;;;;;;;21.73;18.73;;;;;;;;;;5038837;28;20178;-62
2022/03/17 01:00:07;;;;;;;25.57;21.73;;;;;;;;;;5057281;28;20213;-62
2022/03/17 01:02:33;;;;;;;25.00;20.90;;;;;;;;;;5044467;28;20198;-62
2022/03/17 01:04:59;;;;;;;23.33;20.60;;;;;;;;;;5063955;28;20179;-62
2022/03/17 01:07:25;;;;;;;24.30;21.10;;;;;;;;;;5064245;28;20182;-62
2022/03/17 01:09:51;;;;;;;23.63;20.93;;;;;;;;;;5043368;28;20768;-62
2022/03/17 01:12:17;;;;;;;25.80;20.23;;;;;;;;;;5057965;28;20190;-62
2022/03/17 01:14:43;;;;;;;27.00;22.07;;;;;;;;;;5039157;28;20174;-62
2022/03/17 01:17:10;;;;;;;29.63;20.60;;;;;;;;;;5056477;28;20546;-62
2022/03/17 01:19:36;;;;;;;23.07;20.10;;;;;;;;;;5038104;28;20536;-62
2022/03/17 01:22:02;;;;;;;25.13;20.20;;;;;;;;;;5055641;28;20323;-62
2022/03/17 01:24:28;;;;;;;22.97;20.40;;;;;;;;;;5055756;28;20183;-62
2022/03/17 01:26:54;;;;;;;23.87;21.20;;;;;;;;;;5055840;28;20179;-62
2022/03/17 01:29:20;;;;;;;23.93;21.10;;;;;;;;;;5056371;28;20178;-62
2022/03/17 01:31:46;;;;;;;26.47;20.13;;;;;;;;;;5055628;28;20210;-62
2022/03/17 01:34:12;;;;;;;23.97;20.90;;;;;;;;;;5056414;28;20175;-62
2022/03/17 01:36:38;;;;;;;22.30;19.07;;;;;;;;;;5037876;28;20262;-62
2022/03/17 01:39:04;;;;;;;24.23;20.10;;;;;;;;;;5055608;28;20642;-62
2022/03/17 01:41:30;;;;;;;24.53;21.40;;;;;;;;;;5037933;28;20206;-62
2022/03/17 01:43:56;;;;;;;24.97;21.03;;;;;;;;;;5055660;28;20266;-62
2022/03/17 01:46:22;;;;;;;23.83;20.37;;;;;;;;;;5037577;28;20232;-62
2022/03/17 01:48:48;;;;;;;25.70;20.77;;;;;;;;;;5055452;28;20179;-62
2022/03/17 01:51:14;;;;;;;22.97;20.33;;;;;;;;;;5037312;28;20222;-62
2022/03/17 01:53:40;;;;;;;24.23;21.10;;;;;;;;;;5055307;28;20178;-62
2022/03/17 01:56:07;;;;;;;23.70;20.73;;;;;;;;;;5037425;28;20737;-62
2022/03/17 01:58:33;;;;;;;24.13;20.43;;;;;;;;;;5037480;28;20182;-62
2022/03/17 02:00:59;;;;;;;24.97;20.70;;;;;;;;;;5055245;28;20202;-62
2022/03/17 02:03:27;;;;;;;25.10;21.67;;;;;;;;;;5055704;28;20685;-62
2022/03/17 02:05:53;;;;;;;25.30;21.50;;;;;;;;;;5055350;28;20202;-62
2022/03/17 02:08:19;;;;;;;22.10;19.80;;;;;;;;;;5055413;28;20525;-62
2022/03/17 02:13:29;;;;;;;25.00;21.33;;;;;;;;;;5055617;28;20297;-62
2022/03/17 02:15:56;;;;;;;24.60;21.17;;;;;;;;;;5037210;28;20236;-61
2022/03/17 02:18:22;;;;;;;26.93;21.57;;;;;;;;;;5054782;28;20177;-62
2022/03/17 02:20:49;;;;;;;25.07;21.30;;;;;;;;;;5036940;28;20670;-61
2022/03/17 02:26:00;;;;;;;25.47;22.57;;;;;;;;;;5054951;28;20193;-61
2022/03/17 02:28:27;;;;;;;25.90;21.70;;;;;;;;;;5036763;28;20642;-62
2022/03/17 02:30:54;;;;;;;24.03;20.90;;;;;;;;;;5054854;28;20214;-62
2022/03/17 02:33:20;;;;;;;23.17;20.73;;;;;;;;;;5054810;28;20184;-62
2022/03/17 02:35:49;;;;;;;24.27;21.53;;;;;;;;;;5054005;28;20181;-61
2022/03/17 02:38:15;;;;;;;23.87;20.33;;;;;;;;;;5054986;28;20186;-62
2022/03/17 02:40:42;;;;;;;26.30;20.57;;;;;;;;;;5054257;28;20174;-62
2022/03/17 02:43:08;;;;;;;25.07;21.67;;;;;;;;;;5036437;28;20641;-62
2022/03/17 02:45:36;;;;;;;24.50;21.03;;;;;;;;;;5054394;28;20179;-62
2022/03/17 02:48:05;;;;;;;24.83;21.43;;;;;;;;;;5036400;28;20193;-62
2022/03/17 02:50:31;;;;;;;24.97;21.60;;;;;;;;;;5054183;28;20198;-62
2022/03/17 02:53:04;;;;;;;28.03;21.03;;;;;;;;;;5054024;28;20669;-62
2022/03/17 02:55:30;;;;;;;27.70;22.90;;;;;;;;;;5054117;28;20166;-62
2022/03/17 02:57:56;;;;;;;25.57;21.73;;;;;;;;;;5054613;28;20514;-62
2022/03/17 03:00:22;;;;;;;25.30;22.30;;;;;;;;;;5054029;28;20599;-62
2022/03/17 03:02:48;;;;;;;27.43;22.93;;;;;;;;;;5053870;28;20206;-62
2022/03/17 03:05:14;;;;;;;26.07;21.97;;;;;;;;;;5053916;28;20227;-62
2022/03/17 03:07:40;;;;;;;25.33;21.97;;;;;;;;;;5035852;28;20646;-62
2022/03/17 03:10:06;;;;;;;25.93;23.13;;;;;;;;;;5053752;28;20203;-62
2022/03/17 03:12:32;;;;;;;27.23;23.13;;;;;;;;;;5053686;28;20198;-62
2022/03/17 03:14:58;;;;;;;28.50;23.87;;;;;;;;;;5053822;28;20189;-62
2022/03/17 03:17:25;;;;;;;27.10;22.90;;;;;;;;;;5035790;28;20179;-62
2022/03/17 03:19:52;;;;;;;29.50;22.33;;;;;;;;;;5035740;28;20720;-62
2022/03/17 03:22:18;;;;;;;26.33;21.63;;;;;;;;;;5035728;28;20203;-62
2022/03/17 03:24:45;;;;;;;28.40;23.60;;;;;;;;;;5053686;28;20206;-62
2022/03/17 03:27:11;;;;;;;30.17;24.07;;;;;;;;;;5035739;28;20210;-62
2022/03/17 03:29:38;;;;;;;26.70;23.67;;;;;;;;;;5035512;28;20186;-62
2022/03/17 03:32:05;;;;;;;30.17;23.13;;;;;;;;;;5053455;28;20678;-62
2022/03/17 03:34:32;;;;;;;28.00;23.03;;;;;;;;;;5053374;28;20175;-62
2022/03/17 03:39:42;;;;;;;33.37;25.00;;;;;;;;;;5053457;28;20169;-62
2022/03/17 03:42:09;;;;;;;32.27;24.43;;;;;;;;;;5035452;28;20289;-62
2022/03/17 03:44:35;;;;;;;28.20;23.83;;;;;;;;;;5053757;28;20179;-62
2022/03/17 03:47:01;;;;;;;28.67;24.10;;;;;;;;;;5053558;28;20177;-62
2022/03/17 03:49:27;;;;;;;26.53;23.10;;;;;;;;;;5055424;28;20174;-62
2022/03/17 03:51:53;;;;;;;27.37;22.87;;;;;;;;;;5060684;28;20214;-62
2022/03/17 03:54:19;;;;;;;28.93;23.27;;;;;;;;;;5064020;28;20261;-63
2022/03/17 03:56:49;;;;;;;28.67;22.80;;;;;;;;;;5059907;28;20181;-62
2022/03/17 03:59:23;;;;;;;26.83;22.80;;;;;;;;;;5053055;28;20597;-62
2022/03/17 04:01:49;;;;;;;30.90;24.70;;;;;;;;;;5035206;28;20359;-63
2022/03/17 04:04:17;;;;;;;27.50;23.97;;;;;;;;;;5053424;28;20178;-61
2022/03/17 04:06:47;;;;;;;27.97;24.40;;;;;;;;;;5053014;28;20179;-62
2022/03/17 04:09:13;;;;;;;34.13;26.03;;;;;;;;;;5035036;28;20193;-62
2022/03/17 04:11:40;;;;;;;30.77;25.37;;;;;;;;;;5052976;28;20237;-62
2022/03/17 04:14:06;;;;;;;31.83;24.50;;;;;;;;;;5053601;28;20229;-62
2022/03/17 04:16:32;;;;;;;33.13;26.20;;;;;;;;;;5035153;28;20638;-62
2022/03/17 04:18:58;;;;;;;30.17;26.80;;;;;;;;;;5053116;28;20263;-62
2022/03/17 04:21:24;;;;;;;28.57;25.00;;;;;;;;;;5052996;28;20227;-62
2022/03/17 04:23:50;;;;;;;31.20;26.00;;;;;;;;;;5052817;28;20182;-62
2022/03/17 04:26:16;;;;;;;32.77;26.73;;;;;;;;;;5053479;28;20179;-62
2022/03/17 04:28:42;;;;;;;33.23;27.40;;;;;;;;;;5035371;28;20186;-62
2022/03/17 04:31:09;;;;;;;34.33;27.47;;;;;;;;;;5035151;28;20218;-62
2022/03/17 04:33:35;;;;;;;35.10;28.50;;;;;;;;;;5035387;28;20210;-62
2022/03/17 04:36:05;;;;;;;34.17;27.47;;;;;;;;;;5035441;28;20187;-62
2022/03/17 04:38:31;;;;;;;33.20;28.90;;;;;;;;;;5035419;28;20174;-62
2022/03/17 04:40:57;;;;;;;34.07;28.97;;;;;;;;;;5052848;28;20202;-62
2022/03/17 04:43:23;;;;;;;37.80;30.10;;;;;;;;;;5052828;28;20185;-62
2022/03/17 04:45:49;;;;;;;34.70;28.83;;;;;;;;;;5053432;28;20179;-62
2022/03/17 04:48:16;;;;;;;39.47;32.13;;;;;;;;;;5053130;28;20189;-61
2022/03/17 04:50:42;;;;;;;40.90;31.67;;;;;;;;;;5034833;28;20634;-62
2022/03/17 04:55:53;;;;;;;42.03;33.80;;;;;;;;;;5053273;28;20270;-62
2022/03/17 04:58:19;;;;;;;42.33;34.80;;;;;;;;;;5039024;28;20232;-62
2022/03/17 05:00:46;;;;;;;48.30;37.17;;;;;;;;;;5056242;28;20178;-62
2022/03/17 05:03:12;;;;;;;47.43;37.23;;;;;;;;;;5038641;28;20178;-62
2022/03/17 05:05:38;;;;;;;45.63;36.90;;;;;;;;;;5056917;28;20232;-62
2022/03/17 05:08:05;;;;;;;51.23;39.10;;;;;;;;;;5038826;28;20642;-63
2022/03/17 05:10:31;;;;;;;54.80;38.80;;;;;;;;;;5056021;28;20248;-62
2022/03/17 05:12:57;;;;;;;47.27;37.90;;;;;;;;;;5038295;28;20532;-63
2022/03/17 05:15:24;;;;;;;56.23;41.10;;;;;;;;;;5038304;28;20228;-63
2022/03/17 05:17:50;;;;;;;52.77;40.23;;;;;;;;;;5056742;28;20175;-61
2022/03/17 05:20:16;;;;;;;54.90;41.13;;;;;;;;;;5056102;28;20253;-62
2022/03/17 05:22:43;;;;;;;53.87;39.70;;;;;;;;;;5055827;28;20243;-63
2022/03/17 05:25:10;;;;;;;57.03;42.40;;;;;;;;;;5056049;28;20206;-62
2022/03/17 05:27:39;;;;;;;56.50;42.50;;;;;;;;;;5055794;28;20183;-63
2022/03/17 05:30:05;;;;;;;56.57;41.77;;;;;;;;;;5037859;28;20210;-63
2022/03/17 05:32:32;;;;;;;59.67;43.30;;;;;;;;;;5037825;28;20283;-63
2022/03/17 05:34:58;;;;;;;60.83;42.30;;;;;;;;;;5037743;28;20183;-63
2022/03/17 05:37:24;;;;;;;56.13;41.63;;;;;;;;;;5055571;28;20182;-63
2022/03/17 05:39:50;;;;;;;61.50;44.53;;;;;;;;;;5055565;28;20712;-63
2022/03/17 05:42:16;;;;;;;59.07;43.30;;;;;;;;;;5055813;28;20207;-63
2022/03/17 05:44:42;;;;;;;61.87;44.17;;;;;;;;;;5055701;28;20205;-63
2022/03/17 05:47:08;;;;;;;67.47;47.87;;;;;;;;;;5056002;28;20611;-63
2022/03/17 05:49:33;;;;;;;73.50;49.03;;;;;;;;;;5037835;28;20175;-63
2022/03/17 05:51:59;;;;;;;71.33;48.60;;;;;;;;;;5056641;28;20214;-63
2022/03/17 05:54:25;;;;;;;60.87;41.97;;;;;;;;;;5059981;28;20692;-63
2022/03/17 05:56:51;;;;;;;51.67;36.00;;;;;;;;;;5058528;28;20181;-63
2022/03/17 05:59:17;;;;;;;46.70;33.30;;;;;;;;;;5042652;28;20179;-64
2022/03/17 06:01:43;;;;;;;28.53;22.57;;;;;;;;;;5045311;28;20230;-64
2022/03/17 06:04:09;;;;;;;25.23;18.90;;;;;;;;;;5061065;28;20185;-63
2022/03/17 06:06:35;;;;;;;30.60;22.63;;;;;;;;;;5056188;28;20201;-63
2022/03/17 06:09:01;;;;;;;34.57;24.33;;;;;;;;;;5055960;28;20236;-63
2022/03/17 06:11:28;;;;;;;32.40;21.80;;;;;;;;;;5055575;28;20214;-63
2022/03/17 06:13:56;;;;;;;45.03;26.93;;;;;;;;;;5037666;28;20171;-64
2022/03/17 06:16:23;;;;;;;40.37;27.17;;;;;;;;;;5037574;28;20179;-64
2022/03/17 06:18:49;;;;;;;47.37;28.83;;;;;;;;;;5055832;28;20629;-64
2022/03/17 06:21:15;;;;;;;41.10;26.70;;;;;;;;;;5055508;28;20218;-64
2022/03/17 06:23:43;;;;;;;46.27;28.50;;;;;;;;;;5055113;28;20205;-64
2022/03/17 06:26:09;;;;;;;47.63;29.40;;;;;;;;;;5055132;28;20207;-64
2022/03/17 06:28:35;;;;;;;40.70;26.70;;;;;;;;;;5036951;28;20182;-64
2022/03/17 06:31:01;;;;;;;41.40;28.37;;;;;;;;;;5054937;28;20217;-64
2022/03/17 06:33:29;;;;;;;36.77;24.57;;;;;;;;;;5054826;28;20166;-63
2022/03/17 06:35:55;;;;;;;41.13;25.37;;;;;;;;;;5055113;28;20684;-63
2022/03/17 06:38:21;;;;;;;40.70;25.60;;;;;;;;;;5055099;28;20167;-64
2022/03/17 06:40:47;;;;;;;36.77;24.57;;;;;;;;;;5054831;28;20253;-64
2022/03/17 06:43:17;;;;;;;37.43;23.63;;;;;;;;;;5037147;28;20210;-64
2022/03/17 06:45:43;;;;;;;40.37;25.07;;;;;;;;;;5054784;28;20178;-64
2022/03/17 06:48:09;;;;;;;39.53;25.17;;;;;;;;;;5055029;28;20235;-63
2022/03/17 06:50:35;;;;;;;38.43;25.50;;;;;;;;;;5036900;28;20677;-63
2022/03/17 06:53:01;;;;;;;32.63;23.73;;;;;;;;;;5038559;28;20171;-62
2022/03/17 06:55:27;;;;;;;32.10;22.53;;;;;;;;;;5048730;28;20214;-63
2022/03/17 06:57:53;;;;;;;31.43;21.17;;;;;;;;;;5068359;28;20175;-64
2022/03/17 07:00:20;;;;;;;30.73;21.53;;;;;;;;;;5070549;28;20179;-63
2022/03/17 07:02:46;;;;;;;27.80;19.87;;;;;;;;;;5067616;28;20198;-63
2022/03/17 07:05:12;;;;;;;24.67;18.53;;;;;;;;;;5040393;28;20183;-63
2022/03/17 07:07:38;;;;;;;20.37;14.67;;;;;;;;;;5058028;28;20261;-63
2022/03/17 07:10:06;;;;;;;22.70;16.50;;;;;;;;;;5057869;28;20204;-63
2022/03/17 07:12:32;;;;;;;22.93;15.73;;;;;;;;;;5054611;28;20216;-63
2022/03/17 07:14:58;;;;;;;27.27;16.33;;;;;;;;;;5054539;28;20185;-62
2022/03/17 07:17:24;;;;;;;22.97;15.10;;;;;;;;;;5054672;28;20261;-63
2022/03/17 07:22:23;;;;;;;21.17;13.73;;;;;;;;;;5054552;28;20202;-63
2022/03/17 07:24:49;;;;;;;18.13;12.07;;;;;;;;;;5054365;28;20170;-63
2022/03/17 07:27:15;;;;;;;21.13;11.53;;;;;;;;;;5055055;28;20183;-63
2022/03/17 07:29:41;;;;;;;22.53;12.20;;;;;;;;;;5036211;28;20182;-63
2022/03/17 07:32:07;;;;;;;23.43;10.00;;;;;;;;;;5054367;28;20198;-63
2022/03/17 07:34:33;;;;;;;23.40;15.57;;;;;;;;;;5054868;28;20175;-63
2022/03/17 07:36:59;;;;;;;16.20;11.17;;;;;;;;;;5053642;28;20549;-63
2022/03/17 07:39:25;;;;;;;24.37;12.07;;;;;;;;;;5053468;28;20182;-63
2022/03/17 07:41:51;;;;;;;28.67;16.87;;;;;;;;;;5053518;28;20221;-63
2022/03/17 07:44:17;;;;;;;14.03;9.27;;;;;;;;;;5035697;28;20209;-63
2022/03/17 07:46:43;;;;;;;16.10;9.20;;;;;;;;;;5035632;28;20209;-63
2022/03/17 07:49:09;;;;;;;17.70;10.40;;;;;;;;;;5053830;28;20642;-63
2022/03/17 07:51:36;;;;;;;20.07;10.30;;;;;;;;;;5053380;28;20214;-63
2022/03/17 07:54:02;;;;;;;27.43;17.40;;;;;;;;;;5053408;28;20253;-63
2022/03/17 07:56:28;;;;;;;19.67;13.13;;;;;;;;;;5053772;28;20185;-63
2022/03/17 07:58:54;;;;;;;16.07;9.93;;;;;;;;;;5053378;28;20171;-63
2022/03/17 08:01:24;;;;;;;14.37;7.70;;;;;;;;;;5053879;28;20281;-63
2022/03/17 08:03:50;;;;;;;22.50;10.77;;;;;;;;;;5054012;28;20178;-62
2022/03/17 08:06:18;;;;;;;16.27;8.63;;;;;;;;;;5035827;28;20210;-63
2022/03/17 08:08:46;;;;;;;14.53;7.43;;;;;;;;;;5035608;28;20269;-63
2022/03/17 08:11:12;;;;;;;17.87;9.30;;;;;;;;;;5053632;28;20283;-62
2022/03/17 08:13:38;;;;;;;20.30;12.90;;;;;;;;;;5053481;28;20193;-63
2022/03/17 08:16:04;;;;;;;13.43;7.97;;;;;;;;;;5053926;28;20549;-63
2022/03/17 08:18:31;;;;;;;13.23;6.63;;;;;;;;;;5053635;28;20277;-63
2022/03/17 08:20:57;;;;;;;13.03;6.60;;;;;;;;;;5054030;28;20686;-62
2022/03/17 08:23:23;;;;;;;9.43;6.33;;;;;;;;;;5053896;28;20183;-63
2022/03/17 08:25:49;;;;;;;7.77;5.20;;;;;;;;;;5055126;28;20190;-63
2022/03/17 08:28:17;;;;;;;11.87;4.80;;;;;;;;;;5056988;28;20178;-62
2022/03/17 08:30:46;;;;;;;8.83;4.70;;;;;;;;;;5053626;28;20285;-63
2022/03/17 08:33:12;;;;;;;12.40;8.97;;;;;;;;;;5055701;28;20174;-63
2022/03/17 08:35:38;;;;;;;9.00;5.40;;;;;;;;;;5056955;28;20189;-63
2022/03/17 08:38:04;;;;;;;15.87;9.97;;;;;;;;;;5057457;28;20180;-63
2022/03/17 08:40:30;;;;;;;8.93;8.00;;;;;;;;;;5038945;28;20182;-63
2022/03/17 08:42:56;;;;;;;13.97;7.50;;;;;;;;;;5056767;28;20171;-63
2022/03/17 08:50:51;;;;;;;9.30;4.67;;;;;;;;;;5058168;28;20225;-63
2022/03/17 08:53:17;;;;;;;7.57;3.90;;;;;;;;;;5039659;28;20174;-63
2022/03/17 08:55:43;;;;;;;10.73;4.13;;;;;;;;;;5057357;28;20186;-63
2022/03/17 08:58:09;;;;;;;5.93;3.47;;;;;;;;;;5038699;28;20181;-63
2022/03/17 09:00:35;;;;;;;9.50;5.13;;;;;;;;;;5038886;28;20178;-62
2022/03/17 09:03:02;;;;;;;11.80;4.87;;;;;;;;;;5056618;28;20175;-63
2022/03/17 09:05:30;;;;;;;14.63;7.53;;;;;;;;;;5056561;28;20204;-63
2022/03/17 09:07:56;;;;;;;9.33;4.00;;;;;;;;;;5056834;28;20174;-63
2022/03/17 09:10:23;;;;;;;8.90;3.77;;;;;;;;;;5038568;28;20601;-63
2022/03/17 09:12:51;;;;;;;20.80;10.97;;;;;;;;;;5056305;28;20191;-62
2022/03/17 09:15:17;;;;;;;11.23;5.17;;;;;;;;;;5056390;28;20702;-63
2022/03/17 09:17:43;;;;;;;10.70;3.60;;;;;;;;;;5056408;28;20210;-63
2022/03/17 09:20:15;;;;;;;13.17;6.40;;;;;;;;;;5056426;28;20182;-63
2022/03/17 09:22:41;;;;;;;11.30;5.83;;;;;;;;;;5056503;28;20198;-64
2022/03/17 09:25:08;;;;;;;9.40;3.77;;;;;;;;;;5056663;28;20661;-62
2022/03/17 09:27:34;;;;;;;9.87;4.17;;;;;;;;;;5056428;28;20175;-63
2022/03/17 09:30:00;;;;;;;10.23;3.67;;;;;;;;;;5056390;28;20198;-62
2022/03/17 09:32:26;;;;;;;15.43;4.93;;;;;;;;;;5056022;28;20701;-63
2022/03/17 09:34:52;;;;;;;8.17;3.43;;;;;;;;;;5055915;28;20215;-63
2022/03/17 09:37:18;;;;;;;11.07;3.70;;;;;;;;;;5056307;28;20251;-63
2022/03/17 09:39:47;;;;;;;13.53;7.20;;;;;;;;;;5055740;28;20170;-64
2022/03/17 09:42:15;;;;;;;9.93;3.03;;;;;;;;;;5055563;28;20194;-63
2022/03/17 09:44:41;;;;;;;18.97;8.33;;;;;;;;;;5055386;28;20171;-63
2022/03/17 09:47:09;;;;;;;13.53;4.73;;;;;;;;;;5055590;28;20210;-64
2022/03/17 09:49:37;;;;;;;15.60;7.40;;;;;;;;;;5055751;28;20177;-63
2022/03/17 09:52:11;;;;;;;11.73;4.50;;;;;;;;;;5055180;28;20216;-63
2022/03/17 09:54:37;;;;;;;12.43;3.37;;;;;;;;;;5055727;28;20194;-63
2022/03/17 09:57:03;;;;;;;6.73;3.47;;;;;;;;;;5055924;28;20261;-63
2022/03/17 09:59:29;;;;;;;8.23;2.73;;;;;;;;;;5056023;28;20225;-63
2022/03/17 10:01:57;;;;;;;6.30;2.73;;;;;;;;;;5055301;28;20673;-63
2022/03/17 10:04:23;;;;;;;13.73;3.20;;;;;;;;;;5055226;28;20183;-63
2022/03/17 10:06:49;;;;;;;9.20;3.90;;;;;;;;;;5055332;28;20183;-63
2022/03/17 10:09:16;;;;;;;7.50;3.30;;;;;;;;;;5055066;28;20323;-63
2022/03/17 10:11:42;;;;;;;9.87;2.80;;;;;;;;;;5054979;28;20214;-63
2022/03/17 10:14:09;;;;;;;11.07;3.03;;;;;;;;;;5055661;28;20185;-63
2022/03/17 10:16:37;;;;;;;8.43;3.17;;;;;;;;;;5037446;28;20266;-63
2022/03/17 10:19:07;;;;;;;9.70;2.70;;;;;;;;;;5037290;28;20654;-63
2022/03/17 10:21:34;;;;;;;6.37;2.83;;;;;;;;;;5055002;28;20218;-63
2022/03/17 10:24:00;;;;;;;9.27;3.00;;;;;;;;;;5036992;28;20570;-63
2022/03/17 10:26:36;;;;;;;11.83;2.87;;;;;;;;;;5054804;28;20582;-63
2022/03/17 10:29:22;;;;;;;9.23;2.90;;;;;;;;;;5055201;28;20188;-63
2022/03/17 10:32:01;;;;;;;8.00;2.73;;;;;;;;;;5036907;28;20209;-63
2022/03/17 10:34:45;;;;;;;8.57;2.77;;;;;;;;;;5054794;28;20677;-63
2022/03/17 10:37:13;;;;;;;12.00;3.37;;;;;;;;;;5054871;28;20193;-62
2022/03/17 10:39:42;;;;;;;9.13;3.13;;;;;;;;;;5054723;28;20232;-63
2022/03/17 10:42:27;;;;;;;7.23;2.90;;;;;;;;;;5054768;28;20610;-63
2022/03/17 10:44:55;;;;;;;7.77;3.23;;;;;;;;;;5054982;28;20182;-62
2022/03/17 10:47:24;;;;;;;10.07;3.30;;;;;;;;;;5036843;28;20716;-63
2022/03/17 10:50:09;;;;;;;10.77;2.43;;;;;;;;;;5054878;28;20181;-62
2022/03/17 10:52:55;;;;;;;9.83;2.77;;;;;;;;;;5054633;28;20210;-63
2022/03/17 10:55:21;;;;;;;11.87;2.63;;;;;;;;;;5036253;28;20174;-63
2022/03/17 10:57:48;;;;;;;5.20;2.40;;;;;;;;;;5054538;28;20182;-63
2022/03/17 11:00:21;;;;;;;5.30;2.10;;;;;;;;;;5054769;28;20201;-64
2022/03/17 11:02:49;;;;;;;6.17;2.37;;;;;;;;;;5054347;28;20728;-63
2022/03/17 11:05:16;;;;;;;9.13;2.77;;;;;;;;;;5036577;28;20608;-63
2022/03/17 11:07:45;;;;;;;8.53;3.07;;;;;;;;;;5036300;28;20277;-63
2022/03/17 11:10:12;;;;;;;5.57;2.77;;;;;;;;;;5054714;28;20566;-63
2022/03/17 11:12:37;;;;;;;5.43;1.90;;;;;;;;;;5054322;28;20194;-62
2022/03/17 11:15:04;;;;;;;10.23;2.33;;;;;;;;;;5036296;28;20233;-62
2022/03/17 11:17:31;;;;;;;9.67;2.47;;;;;;;;;;5054299;28;20615;-62
2022/03/17 11:20:06;;;;;;;7.73;2.17;;;;;;;;;;5054111;28;20175;-61
2022/03/17 11:22:33;;;;;;;13.93;2.57;;;;;;;;;;5050968;28;20197;-62
2022/03/17 11:25:19;;;;;;;5.90;1.87;;;;;;;;;;5061897;28;20558;-63
2022/03/17 11:27:48;;;;;;;6.57;2.07;;;;;;;;;;5036405;28;20181;-62
2022/03/17 11:30:15;;;;;;;9.37;2.50;;;;;;;;;;5053808;28;20205;-63
2022/03/17 11:33:02;;;;;;;8.03;2.97;;;;;;;;;;5053827;28;20227;-63
2022/03/17 11:35:32;;;;;;;7.37;2.30;;;;;;;;;;5053802;28;20146;-62
2022/03/17 11:38:17;;;;;;;7.73;2.40;;;;;;;;;;5035780;28;20178;-63
2022/03/17 11:41:09;;;;;;;8.13;2.30;;;;;;;;;;5035872;28;20693;-63
2022/03/17 11:43:47;;;;;;;6.40;1.97;;;;;;;;;;5035879;28;20179;-63
2022/03/17 11:46:14;;;;;;;7.40;2.17;;;;;;;;;;5035597;28;20265;-63
2022/03/17 11:48:40;;;;;;;8.77;2.67;;;;;;;;;;5053828;28;20524;-62
2022/03/17 11:51:07;;;;;;;8.07;2.00;;;;;;;;;;5035435;28;20272;-63
2022/03/17 11:53:44;;;;;;;5.37;2.27;;;;;;;;;;5053931;28;20154;-62
2022/03/17 11:56:14;;;;;;;9.50;2.73;;;;;;;;;;5053585;28;20653;-63
2022/03/17 11:58:42;;;;;;;5.53;2.27;;;;;;;;;;5035662;28;20274;-62
2022/03/17 12:01:27;;;;;;;8.00;2.37;;;;;;;;;;5053604;28;20198;-63
2022/03/17 12:03:55;;;;;;;9.13;2.27;;;;;;;;;;5053563;28;20189;-63
2022/03/17 12:06:22;;;;;;;8.13;2.33;;;;;;;;;;5054079;28;20210;-63
2022/03/17 12:08:51;;;;;;;6.67;1.80;;;;;;;;;;5057364;28;20277;-63
2022/03/17 12:11:18;;;;;;;10.87;2.63;;;;;;;;;;5057423;28;20212;-63
2022/03/17 12:14:04;;;;;;;9.33;2.47;;;;;;;;;;5051694;23;20698;-65
2022/03/17 12:16:46;;;;;;;6.90;2.30;;;;;;;;;;5019459;28;20190;-64
2022/03/17 12:19:32;;;;;;;7.40;2.13;;;;;;;;;;5037447;28;20172;-64
2022/03/17 12:21:58;;;;;;;7.90;2.20;;;;;;;;;;5037395;28;20174;-64
2022/03/17 12:24:46;;;;;;;5.10;2.30;;;;;;;;;;5019201;28;20211;-64
2022/03/17 12:27:29;;;;;;;7.43;2.40;;;;;;;;;;5019211;28;20187;-64
2022/03/17 12:29:59;;;;;;;8.77;2.57;;;;;;;;;;5037119;28;20683;-64
2022/03/17 12:32:26;;;;;;;5.67;2.30;;;;;;;;;;5036892;28;20574;-64
2022/03/17 12:34:56;;;;;;;6.20;2.27;;;;;;;;;;5019013;28;20651;-65
2022/03/17 12:37:26;;;;;;;10.50;2.80;;;;;;;;;;5019139;28;20209;-64
2022/03/17 12:39:54;;;;;;;11.43;3.00;;;;;;;;;;5036890;28;20167;-65
2022/03/17 12:42:22;;;;;;;7.57;2.70;;;;;;;;;;5036675;28;20651;-64
2022/03/17 12:45:08;;;;;;;8.97;2.53;;;;;;;;;;5036703;28;20534;-65
2022/03/17 12:47:36;;;;;;;8.33;2.97;;;;;;;;;;5036410;28;20194;-65
2022/03/17 12:50:06;;;;;;;7.03;2.50;;;;;;;;;;5036741;28;20182;-65
2022/03/17 12:52:32;;;;;;;8.40;3.27;;;;;;;;;;5037257;28;20264;-64
2022/03/17 12:54:59;;;;;;;6.20;3.17;;;;;;;;;;5036415;28;20176;-64
2022/03/17 12:57:26;;;;;;;9.73;2.93;;;;;;;;;;5036675;28;20168;-64
2022/03/17 12:59:52;;;;;;;9.33;2.80;;;;;;;;;;5036330;28;20202;-64
2022/03/17 13:02:18;;;;;;;9.37;2.87;;;;;;;;;;5036249;28;20187;-64
2022/03/17 13:04:46;;;;;;;7.03;3.17;;;;;;;;;;5036808;28;20674;-64
2022/03/17 13:07:14;;;;;;;9.03;3.67;;;;;;;;;;5036567;28;20201;-65
2022/03/17 13:09:40;;;;;;;16.17;3.77;;;;;;;;;;5036121;28;20182;-64
2022/03/17 13:14:54;;;;;;;8.43;3.50;;;;;;;;;;5036111;28;20174;-64
2022/03/17 13:17:32;;;;;;;4.43;2.70;;;;;;;;;;5018210;28;20183;-64
2022/03/17 13:19:58;;;;;;;11.60;2.83;;;;;;;;;;5035324;28;20254;-65
2022/03/17 13:22:25;;;;;;;7.23;3.00;;;;;;;;;;5018202;28;20179;-65
2022/03/17 13:25:01;;;;;;;8.87;2.80;;;;;;;;;;5035798;28;20198;-65
2022/03/17 13:27:27;;;;;;;7.57;3.00;;;;;;;;;;5036157;28;20193;-64
2022/03/17 13:29:54;;;;;;;10.73;2.80;;;;;;;;;;5035975;28;20198;-64
2022/03/17 13:32:21;;;;;;;23.07;4.63;;;;;;;;;;5035801;28;20187;-64
2022/03/17 13:34:57;;;;;;;6.73;2.80;;;;;;;;;;5018118;28;20197;-63
2022/03/17 13:37:32;;;;;;;7.97;3.40;;;;;;;;;;5018009;28;20163;-63
2022/03/17 13:40:03;;;;;;;6.93;3.07;;;;;;;;;;5035764;28;20670;-64
2022/03/17 13:42:29;;;;;;;4.73;3.10;;;;;;;;;;5035627;28;20183;-63
2022/03/17 13:44:56;;;;;;;9.30;3.67;;;;;;;;;;5035467;28;20236;-64
2022/03/17 13:47:31;;;;;;;11.73;3.87;;;;;;;;;;5035630;28;20179;-64
2022/03/17 13:50:19;;;;;;;8.70;3.33;;;;;;;;;;5035716;28;20308;-63
2022/03/17 13:52:55;;;;;;;11.03;3.90;;;;;;;;;;5018106;28;20199;-63
2022/03/17 13:55:21;;;;;;;7.67;3.43;;;;;;;;;;5036301;28;20250;-65
2022/03/17 13:57:47;;;;;;;8.53;3.23;;;;;;;;;;5036030;28;20521;-63
2022/03/17 14:00:21;;;;;;;8.70;3.20;;;;;;;;;;5035337;28;20175;-63
2022/03/17 14:02:47;;;;;;;10.50;3.40;;;;;;;;;;5017341;28;20203;-63
2022/03/17 14:05:14;;;;;;;10.77;4.57;;;;;;;;;;5017414;28;20549;-63
2022/03/17 14:07:40;;;;;;;7.03;3.63;;;;;;;;;;5017480;28;20183;-64
2022/03/17 14:10:06;;;;;;;8.93;3.20;;;;;;;;;;5016117;28;20387;-63
2022/03/17 14:12:33;;;;;;;12.17;3.47;;;;;;;;;;5034936;28;20202;-64
2022/03/17 14:14:59;;;;;;;7.73;3.23;;;;;;;;;;5035139;28;20159;-64
2022/03/17 14:17:25;;;;;;;5.80;3.07;;;;;;;;;;5034930;28;20176;-64
2022/03/17 14:19:51;;;;;;;6.53;2.80;;;;;;;;;;5034788;28;20178;-64
2022/03/17 14:25:01;;;;;;;10.17;2.80;;;;;;;;;;5034836;28;20561;-64
2022/03/17 14:27:27;;;;;;;9.50;3.13;;;;;;;;;;5034952;28;20179;-64
2022/03/17 14:29:53;;;;;;;8.57;2.90;;;;;;;;;;5035975;28;20183;-64
2022/03/17 14:32:19;;;;;;;8.43;3.00;;;;;;;;;;5039935;28;20308;-64
2022/03/17 14:34:47;;;;;;;9.67;3.23;;;;;;;;;;5040094;28;20495;-64
2022/03/17 14:37:13;;;;;;;5.10;2.53;;;;;;;;;;5038977;28;20171;-64
2022/03/17 14:39:43;;;;;;;5.57;2.63;;;;;;;;;;5035734;28;20569;-64
2022/03/17 14:42:12;;;;;;;7.27;2.67;;;;;;;;;;5035500;28;20254;-64
2022/03/17 14:44:39;;;;;;;7.50;3.20;;;;;;;;;;5035022;28;20260;-64
2022/03/17 14:47:05;;;;;;;8.00;2.87;;;;;;;;;;5034595;28;20662;-64
2022/03/17 14:49:30;;;;;;;5.40;2.73;;;;;;;;;;5034650;28;20184;-64
2022/03/17 14:51:56;;;;;;;7.70;2.40;;;;;;;;;;5016413;28;20218;-64
2022/03/17 14:54:22;;;;;;;8.50;2.77;;;;;;;;;;5034112;28;20199;-64